Time;durP1;ratioP1;P1;durP2;ratioP2;P2;SDS_P1;SDS_P2;PMS_P1;PMS_P2;Temp;Humidity;BMP_temperature;BMP_pressure;BME280_temperature;BME280_humidity;BME280_pressure;Samples;Min_cycle;Max_cycle;Signal;HPM_P1;HPM_P2
2022/06/26 00:00:25;;;;;;;22.67;19.00;;;19.30;99.90;;;;;;4880804;29;20417;-70
2022/06/26 00:02:51;;;;;;;22.10;19.70;;;19.30;99.90;;;;;;4881503;29;20049;-69
2022/06/26 00:05:17;;;;;;;21.20;18.60;;;19.20;99.90;;;;;;4880866;29;20045;-69
2022/06/26 00:07:43;;;;;;;24.23;19.05;;;19.20;99.90;;;;;;4881094;29;20052;-69
2022/06/26 00:10:09;;;;;;;20.83;18.55;;;19.20;99.90;;;;;;4880565;29;20052;-69
2022/06/26 00:12:35;;;;;;;22.00;19.63;;;19.20;99.90;;;;;;4880387;29;20057;-69
2022/06/26 00:15:00;;;;;;;22.77;19.25;;;19.20;99.90;;;;;;4880498;29;20053;-70
2022/06/26 00:17:26;;;;;;;21.40;18.73;;;19.20;99.90;;;;;;4880391;29;20128;-69
2022/06/26 00:19:53;;;;;;;23.90;20.23;;;19.20;99.90;;;;;;4880421;29;20079;-70
2022/06/26 00:22:20;;;;;;;22.65;19.27;;;19.20;99.90;;;;;;4879409;29;20133;-69
2022/06/26 00:24:46;;;;;;;22.95;20.33;;;19.20;99.90;;;;;;4880802;29;20053;-70
2022/06/26 00:27:12;;;;;;;23.58;19.60;;;19.10;99.90;;;;;;4880279;29;20072;-69
2022/06/26 00:29:38;;;;;;;23.83;19.75;;;19.10;99.90;;;;;;4879118;29;20508;-70
2022/06/26 00:32:05;;;;;;;24.17;21.00;;;19.10;99.90;;;;;;4880272;29;20056;-69
2022/06/26 00:34:31;;;;;;;23.13;20.48;;;19.10;99.90;;;;;;4880176;29;20053;-70
2022/06/26 00:36:57;;;;;;;24.77;20.17;;;19.10;99.90;;;;;;4879469;29;20136;-70
2022/06/26 00:39:23;;;;;;;23.00;20.30;;;19.10;99.90;;;;;;4879784;29;20128;-69
2022/06/26 00:41:51;;;;;;;24.63;20.38;;;19.10;99.90;;;;;;4880073;29;20053;-70
2022/06/26 00:44:22;;;;;;;25.20;20.85;;;19.10;99.90;;;;;;4879576;29;20048;-70
2022/06/26 00:46:49;;;;;;;22.30;19.67;;;19.10;99.90;;;;;;4880381;29;20097;-70
2022/06/26 00:49:15;;;;;;;23.85;20.15;;;19.10;99.90;;;;;;4880000;29;20132;-69
2022/06/26 00:51:44;;;;;;;22.83;20.17;;;19.10;99.90;;;;;;4880802;29;20085;-70
2022/06/26 00:54:11;;;;;;;24.48;20.48;;;19.00;99.90;;;;;;4879980;29;20040;-71
2022/06/26 00:56:38;;;;;;;24.73;20.40;;;19.00;99.90;;;;;;4879863;29;20048;-70
2022/06/26 00:59:04;;;;;;;24.15;20.52;;;19.00;99.90;;;;;;4878773;29;20045;-70
2022/06/26 01:01:31;;;;;;;21.88;19.10;;;19.00;99.90;;;;;;4879884;29;20106;-69
2022/06/26 01:03:57;;;;;;;23.05;20.25;;;19.00;99.90;;;;;;4880324;29;20458;-70
2022/06/26 01:06:23;;;;;;;23.52;21.02;;;19.00;99.90;;;;;;4863651;29;20140;-70
2022/06/26 01:08:49;;;;;;;21.50;19.20;;;19.00;99.90;;;;;;4879102;29;20051;-70
2022/06/26 01:11:17;;;;;;;22.33;19.25;;;19.00;99.90;;;;;;4880642;29;20061;-70
2022/06/26 01:13:45;;;;;;;22.02;18.95;;;19.00;99.90;;;;;;4879473;29;20057;-70
2022/06/26 01:16:19;;;;;;;23.23;19.05;;;19.00;99.90;;;;;;4878844;29;20410;-70
2022/06/26 01:18:48;;;;;;;23.23;18.88;;;19.00;99.90;;;;;;4880347;29;20061;-69
2022/06/26 01:21:16;;;;;;;22.02;19.63;;;19.00;99.90;;;;;;4879701;29;20132;-69
2022/06/26 01:23:42;;;;;;;24.17;20.65;;;18.90;99.90;;;;;;4880220;29;20060;-69
2022/06/26 01:26:08;;;;;;;23.38;19.60;;;18.90;99.90;;;;;;4879757;29;20052;-69
2022/06/26 01:28:33;;;;;;;22.98;19.38;;;18.80;99.90;;;;;;4879658;29;20044;-70
2022/06/26 01:30:59;;;;;;;23.23;20.67;;;18.80;99.90;;;;;;4879648;29;20431;-69
2022/06/26 01:33:25;;;;;;;24.85;20.90;;;18.80;99.90;;;;;;4879604;29;20078;-70
2022/06/26 01:35:51;;;;;;;22.80;20.30;;;18.70;99.90;;;;;;4878391;29;20053;-71
2022/06/26 01:38:21;;;;;;;23.60;20.27;;;18.70;99.90;;;;;;4879539;29;20092;-71
2022/06/26 01:40:52;;;;;;;24.00;20.33;;;18.60;99.90;;;;;;4879514;29;20053;-71
2022/06/26 01:43:21;;;;;;;26.15;20.58;;;18.60;99.90;;;;;;4880502;29;20052;-71
2022/06/26 01:45:48;;;;;;;22.67;19.63;;;18.60;99.90;;;;;;4879417;29;20045;-71
2022/06/26 01:48:15;;;;;;;24.10;20.25;;;18.60;99.90;;;;;;4880038;29;20063;-70
2022/06/26 01:50:41;;;;;;;24.58;20.10;;;18.50;99.90;;;;;;4879715;29;20401;-70
2022/06/26 01:53:07;;;;;;;24.25;21.50;;;18.50;99.90;;;;;;4879442;29;20057;-70
2022/06/26 01:55:33;;;;;;;22.23;19.80;;;18.60;99.90;;;;;;4880007;29;20060;-70
2022/06/26 01:58:02;;;;;;;22.35;18.90;;;18.50;99.90;;;;;;4883808;29;20056;-71
2022/06/26 02:00:29;;;;;;;21.40;19.13;;;18.60;99.90;;;;;;4883311;29;20048;-70
2022/06/26 02:02:55;;;;;;;21.48;18.95;;;18.50;99.90;;;;;;4883262;29;20410;-70
2022/06/26 02:05:21;;;;;;;23.55;19.75;;;18.50;99.90;;;;;;4866932;29;20045;-70
2022/06/26 02:07:47;;;;;;;25.55;21.02;;;18.50;99.90;;;;;;4882846;29;20057;-69
2022/06/26 02:15:42;;;;;;;20.77;18.48;;;18.40;99.90;;;;;;4882239;29;20489;-69
2022/06/26 02:18:08;;;;;;;20.42;17.58;;;18.30;99.90;;;;;;4881438;29;20053;-70
2022/06/26 02:20:34;;;;;;;20.90;18.27;;;18.30;99.90;;;;;;4884356;29;20457;-70
2022/06/26 02:22:59;;;;;;;20.52;18.30;;;18.30;99.90;;;;;;4883754;29;20501;-70
2022/06/26 02:25:26;;;;;;;20.75;17.35;;;18.30;99.90;;;;;;4884438;29;20052;-70
2022/06/26 02:27:51;;;;;;;21.40;18.20;;;18.40;99.90;;;;;;4883656;29;20470;-70
2022/06/26 02:30:17;;;;;;;20.20;17.80;;;18.40;99.90;;;;;;4883044;29;20049;-70
2022/06/26 02:32:43;;;;;;;20.00;16.98;;;18.40;99.90;;;;;;4881964;29;20402;-70
2022/06/26 02:35:09;;;;;;;19.55;17.15;;;18.40;99.90;;;;;;4882910;29;20041;-71
2022/06/26 02:37:35;;;;;;;19.23;17.20;;;18.40;99.90;;;;;;4882251;29;20053;-70
2022/06/26 02:40:01;;;;;;;19.15;16.10;;;18.40;99.90;;;;;;4882715;29;20049;-70
2022/06/26 02:42:27;;;;;;;19.13;16.92;;;18.40;99.90;;;;;;4882144;29;20470;-70
2022/06/26 02:44:52;;;;;;;18.02;16.13;;;18.50;99.90;;;;;;4882071;29;20057;-70
2022/06/26 02:47:18;;;;;;;17.08;15.27;;;18.40;99.90;;;;;;4882395;29;20049;-69
2022/06/26 02:49:44;;;;;;;17.40;15.00;;;18.40;99.90;;;;;;4881980;29;20045;-70
2022/06/26 02:52:10;;;;;;;15.40;13.70;;;18.40;99.90;;;;;;4881722;29;20052;-70
2022/06/26 02:54:36;;;;;;;14.75;13.05;;;18.40;99.90;;;;;;4880810;29;20060;-70
2022/06/26 02:57:01;;;;;;;15.60;13.60;;;18.50;99.90;;;;;;4896763;29;20053;-69
2022/06/26 02:59:27;;;;;;;16.30;12.43;;;18.50;99.90;;;;;;4881640;29;20121;-69
2022/06/26 03:01:53;;;;;;;14.85;12.43;;;18.50;99.90;;;;;;4881841;29;20509;-69
2022/06/26 03:04:19;;;;;;;14.45;13.00;;;18.50;99.90;;;;;;4881686;29;20049;-70
2022/06/26 03:06:45;;;;;;;14.20;11.55;;;18.50;99.90;;;;;;4881224;29;20056;-69
2022/06/26 03:09:10;;;;;;;14.00;11.73;;;18.60;99.90;;;;;;4880440;29;20081;-69
2022/06/26 03:11:37;;;;;;;13.50;12.00;;;18.50;99.90;;;;;;4881025;29;20525;-69
2022/06/26 03:14:02;;;;;;;12.68;11.43;;;18.60;99.90;;;;;;4882105;29;20215;-69
2022/06/26 03:16:28;;;;;;;12.30;10.98;;;18.60;99.90;;;;;;4881570;29;20484;-70
2022/06/26 03:18:54;;;;;;;13.13;11.43;;;18.60;99.90;;;;;;4881915;29;20063;-69
2022/06/26 03:21:19;;;;;;;12.40;10.65;;;18.60;99.90;;;;;;4880755;29;20061;-70
2022/06/26 03:24:03;;;;;;;13.15;11.48;;;18.60;99.90;;;;;;4881479;29;20091;-69
2022/06/26 03:26:37;;;;;;;14.50;11.15;;;18.60;99.90;;;;;;4881301;29;20069;-68
2022/06/26 03:29:05;;;;;;;10.25;9.25;;;18.60;99.90;;;;;;4881436;29;20059;-70
2022/06/26 03:31:31;;;;;;;9.30;8.30;;;18.50;99.90;;;;;;4881541;29;20056;-70
2022/06/26 03:33:57;;;;;;;10.05;8.13;;;18.50;99.90;;;;;;4881242;29;20494;-69
2022/06/26 03:36:23;;;;;;;8.38;7.50;;;18.50;99.90;;;;;;4881149;29;20447;-70
2022/06/26 03:38:50;;;;;;;7.25;6.38;;;18.40;99.90;;;;;;4881185;29;20617;-69
2022/06/26 03:41:16;;;;;;;7.93;7.10;;;18.40;99.90;;;;;;4881749;29;20052;-70
2022/06/26 03:43:41;;;;;;;8.25;6.78;;;18.40;99.90;;;;;;4881187;29;20454;-69
2022/06/26 03:46:08;;;;;;;8.63;7.28;;;18.40;99.90;;;;;;4880933;29;20049;-70
2022/06/26 03:48:33;;;;;;;7.45;6.75;;;18.40;99.90;;;;;;4880977;29;20049;-70
2022/06/26 03:50:59;;;;;;;8.73;7.00;;;18.30;99.90;;;;;;4880972;29;20108;-70
2022/06/26 03:53:25;;;;;;;6.25;5.25;;;18.30;99.90;;;;;;4880673;29;20498;-69
2022/06/26 03:55:51;;;;;;;7.50;6.22;;;18.30;99.90;;;;;;4880931;29;20045;-69
2022/06/26 03:58:17;;;;;;;7.72;5.95;;;18.30;99.90;;;;;;4880438;29;20509;-69
2022/06/26 04:00:43;;;;;;;6.10;5.43;;;18.30;99.90;;;;;;4880031;29;20091;-69
2022/06/26 04:03:09;;;;;;;4.93;3.60;;;18.30;99.90;;;;;;4880957;29;20529;-69
2022/06/26 04:05:39;;;;;;;5.22;3.65;;;18.30;99.90;;;;;;4880218;29;20049;-69
2022/06/26 04:08:05;;;;;;;4.82;4.20;;;18.30;99.90;;;;;;4880980;29;20049;-69
2022/06/26 04:10:32;;;;;;;5.63;3.78;;;18.30;99.90;;;;;;4880995;29;20064;-69
2022/06/26 04:13:02;;;;;;;4.57;3.33;;;18.30;99.90;;;;;;4879634;29;20052;-69
2022/06/26 04:15:29;;;;;;;5.47;3.05;;;18.20;99.90;;;;;;4879583;29;20557;-69
2022/06/26 04:17:55;;;;;;;3.42;2.90;;;18.20;99.90;;;;;;4879387;29;20505;-69
2022/06/26 04:20:21;;;;;;;4.30;1.90;;;18.20;99.90;;;;;;4880731;29;20052;-69
2022/06/26 04:23:02;;;;;;;2.85;2.08;;;18.20;99.90;;;;;;4879428;29;20048;-70
2022/06/26 04:25:30;;;;;;;1.75;1.27;;;18.20;99.90;;;;;;4880320;29;20131;-70
2022/06/26 04:27:56;;;;;;;3.33;1.50;;;18.30;99.90;;;;;;4880594;29;20124;-70
2022/06/26 04:30:23;;;;;;;1.88;1.10;;;18.30;99.90;;;;;;4880306;29;20057;-70
2022/06/26 04:32:48;;;;;;;2.97;1.30;;;18.30;99.90;;;;;;4880261;29;20088;-69
2022/06/26 04:35:14;;;;;;;1.38;1.27;;;18.30;99.90;;;;;;4880215;29;20088;-69
2022/06/26 04:37:40;;;;;;;1.50;1.25;;;18.30;99.90;;;;;;4880516;29;20061;-70
2022/06/26 04:40:08;;;;;;;1.88;1.27;;;18.30;99.90;;;;;;4880131;29;20088;-69
2022/06/26 04:42:34;;;;;;;2.15;1.00;;;18.30;99.90;;;;;;4880068;29;20053;-70
2022/06/26 04:45:00;;;;;;;1.67;1.23;;;18.30;99.90;;;;;;4880007;29;20041;-70
2022/06/26 04:47:26;;;;;;;3.88;1.40;;;18.30;99.90;;;;;;4880065;29;20059;-70
2022/06/26 04:49:51;;;;;;;1.35;1.23;;;18.40;99.90;;;;;;4880033;29;20152;-69
2022/06/26 04:52:17;;;;;;;1.73;1.35;;;18.40;99.90;;;;;;4880027;29;20112;-69
2022/06/26 04:54:44;;;;;;;1.52;1.23;;;18.40;99.90;;;;;;4879966;29;20052;-70
2022/06/26 04:57:10;;;;;;;3.28;1.42;;;18.40;99.90;;;;;;4878990;29;20478;-70
2022/06/26 04:59:36;;;;;;;2.22;1.38;;;18.40;99.90;;;;;;4879932;29;20051;-70
2022/06/26 05:02:03;;;;;;;2.15;1.55;;;18.40;99.90;;;;;;4878902;29;20477;-70
2022/06/26 05:04:29;;;;;;;1.80;1.20;;;18.40;99.90;;;;;;4880244;29;20037;-70
2022/06/26 05:06:54;;;;;;;2.95;1.38;;;18.40;99.90;;;;;;4880212;29;20088;-70
2022/06/26 05:09:22;;;;;;;2.67;1.42;;;18.30;99.90;;;;;;4880293;29;20093;-69
2022/06/26 05:11:48;;;;;;;2.53;1.33;;;18.30;99.90;;;;;;4880377;29;20064;-70
2022/06/26 05:14:14;;;;;;;2.53;1.33;;;18.30;99.90;;;;;;4879748;29;20049;-70
2022/06/26 05:16:40;;;;;;;2.63;1.40;;;18.30;99.90;;;;;;4879747;29;20057;-70
2022/06/26 05:19:05;;;;;;;2.22;1.73;;;18.30;99.90;;;;;;4879755;29;20105;-70
2022/06/26 05:21:31;;;;;;;1.60;1.50;;;18.40;99.90;;;;;;4879727;29;20049;-70
2022/06/26 05:23:57;;;;;;;1.70;1.60;;;18.40;99.90;;;;;;4880170;29;20048;-70
2022/06/26 05:26:23;;;;;;;3.10;1.58;;;18.40;99.90;;;;;;4879702;29;20063;-70
2022/06/26 05:28:49;;;;;;;2.30;1.40;;;18.30;99.90;;;;;;4880002;29;20382;-70
2022/06/26 05:31:15;;;;;;;2.55;1.40;;;18.30;99.90;;;;;;4883406;29;20131;-70
2022/06/26 05:33:41;;;;;;;1.40;1.05;;;18.30;99.90;;;;;;4883916;29;20093;-70
2022/06/26 05:36:07;;;;;;;1.92;1.30;;;18.30;99.90;;;;;;4883926;29;20448;-70
2022/06/26 05:38:34;;;;;;;1.63;1.30;;;18.30;99.90;;;;;;4882305;29;20493;-69
2022/06/26 05:41:00;;;;;;;1.58;1.33;;;18.30;99.90;;;;;;4883132;29;20482;-70
2022/06/26 05:43:29;;;;;;;1.80;1.10;;;18.30;99.90;;;;;;4883740;29;20100;-70
2022/06/26 05:45:55;;;;;;;2.65;1.42;;;18.30;99.90;;;;;;4883061;29;20545;-70
2022/06/26 05:48:21;;;;;;;2.42;1.30;;;18.30;99.90;;;;;;4883067;29;20140;-70
2022/06/26 05:50:47;;;;;;;2.30;1.42;;;18.40;99.90;;;;;;4883032;29;20049;-70
2022/06/26 05:53:13;;;;;;;3.03;1.40;;;18.40;99.90;;;;;;4883050;29;20152;-70
2022/06/26 05:55:38;;;;;;;1.55;1.30;;;18.40;99.90;;;;;;4882086;29;20609;-70
2022/06/26 05:58:07;;;;;;;1.88;1.40;;;18.40;99.90;;;;;;4882971;29;20052;-70
2022/06/26 06:00:33;;;;;;;2.47;1.50;;;18.50;99.90;;;;;;4882914;29;20057;-69
2022/06/26 06:02:59;;;;;;;2.97;1.85;;;18.50;99.90;;;;;;4882205;29;20410;-69
2022/06/26 06:05:28;;;;;;;2.83;1.70;;;18.50;99.90;;;;;;4881642;29;20048;-70
2022/06/26 06:07:55;;;;;;;2.58;1.90;;;18.50;99.90;;;;;;4882771;29;20473;-70
2022/06/26 06:10:21;;;;;;;3.08;2.25;;;18.60;99.90;;;;;;4881540;29;20149;-69
2022/06/26 06:12:48;;;;;;;4.43;2.65;;;18.60;99.90;;;;;;4881726;29;20136;-70
2022/06/26 06:15:14;;;;;;;4.13;2.20;;;18.70;99.90;;;;;;4883122;29;20139;-69
2022/06/26 06:17:44;;;;;;;3.08;2.42;;;18.70;99.90;;;;;;4882646;29;20056;-70
2022/06/26 06:20:10;;;;;;;3.88;2.63;;;18.60;99.90;;;;;;4866418;29;20061;-70
2022/06/26 06:22:37;;;;;;;4.82;3.28;;;18.70;99.90;;;;;;4882602;29;20053;-70
2022/06/26 06:25:03;;;;;;;3.72;3.05;;;18.70;99.90;;;;;;4883177;29;20378;-70
2022/06/26 06:27:28;;;;;;;3.65;2.85;;;18.80;99.90;;;;;;4882449;29;20053;-70
2022/06/26 06:29:54;;;;;;;3.53;2.97;;;18.80;99.90;;;;;;4882455;29;20409;-70
2022/06/26 06:32:20;;;;;;;6.15;3.47;;;18.90;99.90;;;;;;4882331;29;20056;-70
2022/06/26 06:34:46;;;;;;;4.72;4.32;;;18.90;99.90;;;;;;4882345;29;20048;-70
2022/06/26 06:37:11;;;;;;;4.70;3.47;;;18.90;99.90;;;;;;4882808;29;20386;-70
2022/06/26 06:39:37;;;;;;;5.35;4.20;;;18.90;99.90;;;;;;4882157;29;20131;-70
2022/06/26 06:42:03;;;;;;;3.90;3.50;;;19.00;99.90;;;;;;4880686;29;20415;-70
2022/06/26 06:44:28;;;;;;;5.47;4.78;;;18.90;99.90;;;;;;4880808;29;20500;-70
2022/06/26 06:46:54;;;;;;;6.78;5.00;;;19.00;99.90;;;;;;4881845;29;20048;-70
2022/06/26 06:49:20;;;;;;;5.57;4.82;;;19.00;99.90;;;;;;4882639;29;20060;-70
2022/06/26 06:51:45;;;;;;;4.97;4.32;;;19.00;99.90;;;;;;4882115;29;20446;-70
2022/06/26 06:54:11;;;;;;;6.18;5.57;;;19.00;99.90;;;;;;4865682;29;20052;-69
2022/06/26 06:56:37;;;;;;;5.93;4.80;;;19.00;99.90;;;;;;4880438;29;20148;-70
2022/06/26 06:59:03;;;;;;;5.25;4.75;;;19.10;99.90;;;;;;4881612;29;20098;-70
2022/06/26 07:01:29;;;;;;;7.00;6.15;;;19.10;99.90;;;;;;4882154;29;20071;-71
2022/06/26 07:03:55;;;;;;;5.63;5.13;;;19.20;99.90;;;;;;4881106;29;20132;-69
2022/06/26 07:06:21;;;;;;;7.00;5.03;;;19.20;99.90;;;;;;4881882;29;20044;-70
2022/06/26 07:08:47;;;;;;;6.43;5.53;;;19.20;99.90;;;;;;4881474;29;20113;-70
2022/06/26 07:11:13;;;;;;;6.75;6.05;;;19.30;99.90;;;;;;4880529;29;20061;-70
2022/06/26 07:13:39;;;;;;;8.02;6.82;;;19.30;99.90;;;;;;4881676;29;20114;-70
2022/06/26 07:16:05;;;;;;;7.93;7.13;;;19.30;99.90;;;;;;4881586;29;20045;-70
2022/06/26 07:18:31;;;;;;;7.78;6.45;;;19.30;99.90;;;;;;4880850;29;20084;-70
2022/06/26 07:20:56;;;;;;;9.63;6.68;;;19.30;99.90;;;;;;4881489;29;20088;-70
2022/06/26 07:23:22;;;;;;;8.82;7.75;;;19.30;99.90;;;;;;4881490;29;20112;-71
2022/06/26 07:25:48;;;;;;;7.63;6.93;;;19.40;99.90;;;;;;4881361;29;20049;-70
2022/06/26 07:28:13;;;;;;;9.13;7.70;;;19.40;99.90;;;;;;4881365;29;20045;-68
2022/06/26 07:30:39;;;;;;;8.95;8.05;;;19.40;99.90;;;;;;4881605;29;20061;-70
2022/06/26 07:34:12;;;;;;;8.90;8.07;;;19.40;99.90;;;;;;4881825;29;20581;-69
2022/06/26 07:35:52;;;;;;;9.63;8.63;;;19.40;99.90;;;;;;4881271;29;20482;-70
2022/06/26 07:38:18;;;;;;;8.80;7.82;;;19.40;99.90;;;;;;4879987;29;20060;-69
2022/06/26 07:40:44;;;;;;;10.32;9.25;;;19.40;99.90;;;;;;4881014;29;20053;-70
2022/06/26 07:43:10;;;;;;;10.45;9.07;;;19.40;99.90;;;;;;4881248;29;20056;-70
2022/06/26 07:45:36;;;;;;;12.45;9.75;;;19.50;99.90;;;;;;4881007;29;20064;-71
2022/06/26 07:48:01;;;;;;;12.23;9.88;;;19.50;99.90;;;;;;4864522;29;20049;-69
2022/06/26 07:50:28;;;;;;;11.13;10.02;;;19.40;99.90;;;;;;4881704;29;20112;-71
2022/06/26 07:52:54;;;;;;;11.00;9.32;;;19.50;99.90;;;;;;4881022;29;20056;-71
2022/06/26 07:55:20;;;;;;;11.88;9.57;;;19.60;99.90;;;;;;4881113;29;20128;-70
2022/06/26 07:57:46;;;;;;;11.10;10.00;;;19.60;99.90;;;;;;4880976;29;20045;-71
2022/06/26 08:00:12;;;;;;;11.25;9.75;;;19.70;99.90;;;;;;4880808;29;20132;-70
2022/06/26 08:02:39;;;;;;;10.73;8.82;;;19.70;99.90;;;;;;4880977;29;20065;-69
2022/06/26 08:05:05;;;;;;;11.98;9.43;;;19.60;99.90;;;;;;4880769;29;20478;-70
2022/06/26 08:07:31;;;;;;;11.75;10.55;;;19.70;99.90;;;;;;4879882;29;20060;-70
2022/06/26 08:09:56;;;;;;;10.60;9.50;;;19.70;99.90;;;;;;4881101;29;20057;-69
2022/06/26 08:12:22;;;;;;;11.20;10.02;;;19.80;99.90;;;;;;4881083;29;20136;-70
2022/06/26 08:14:48;;;;;;;11.38;10.18;;;19.90;99.90;;;;;;4880426;29;20470;-70
2022/06/26 08:17:14;;;;;;;12.05;10.85;;;20.00;99.90;;;;;;4880683;29;20060;-70
2022/06/26 08:19:39;;;;;;;13.30;9.77;;;20.10;99.90;;;;;;4880658;29;20049;-69
2022/06/26 08:22:05;;;;;;;10.45;9.32;;;20.20;99.90;;;;;;4880574;29;20053;-70
2022/06/26 08:24:32;;;;;;;10.30;8.88;;;20.30;99.90;;;;;;4864741;29;20167;-75
2022/06/26 08:26:59;;;;;;;11.63;10.38;;;20.40;99.90;;;;;;4881017;29;20132;-75
2022/06/26 08:29:25;;;;;;;11.20;10.05;;;20.40;99.90;;;;;;4880466;29;20119;-74
2022/06/26 08:31:51;;;;;;;11.48;10.38;;;20.40;99.90;;;;;;4881300;29;20522;-76
2022/06/26 08:34:16;;;;;;;10.70;9.60;;;20.40;99.90;;;;;;4881379;29;20052;-74
2022/06/26 08:36:42;;;;;;;11.57;10.43;;;20.40;99.90;;;;;;4880545;29;20380;-74
2022/06/26 08:39:08;;;;;;;8.88;8.00;;;20.30;99.90;;;;;;4879975;29;20049;-75
2022/06/26 08:41:39;;;;;;;8.80;7.90;;;20.40;99.90;;;;;;4879911;29;20063;-75
2022/06/26 08:44:06;;;;;;;9.05;7.35;;;20.40;99.90;;;;;;4880316;29;20497;-74
2022/06/26 08:46:36;;;;;;;7.93;7.15;;;20.40;99.90;;;;;;4880169;29;20134;-74
2022/06/26 08:49:05;;;;;;;8.10;7.35;;;20.30;99.90;;;;;;4880566;29;20071;-73
2022/06/26 08:51:34;;;;;;;9.18;8.00;;;20.20;99.90;;;;;;4879900;29;20064;-74
2022/06/26 08:54:01;;;;;;;8.48;7.05;;;20.10;99.90;;;;;;4880340;29;20131;-74
2022/06/26 08:56:27;;;;;;;6.90;6.20;;;20.00;99.90;;;;;;4879565;29;20049;-77
2022/06/26 08:58:54;;;;;;;6.45;5.43;;;20.00;99.90;;;;;;4879771;29;20117;-78
2022/06/26 09:01:20;;;;;;;6.47;5.85;;;20.00;99.90;;;;;;4879827;29;20077;-75
2022/06/26 09:03:46;;;;;;;8.95;8.05;;;20.00;99.90;;;;;;4879299;29;20192;-74
2022/06/26 09:06:11;;;;;;;9.60;8.60;;;20.10;99.90;;;;;;4879607;29;20045;-75
2022/06/26 09:08:45;;;;;;;8.18;7.38;;;20.20;99.90;;;;;;4879644;29;20427;-75
2022/06/26 09:11:11;;;;;;;6.65;5.97;;;20.40;99.90;;;;;;4879716;29;20129;-74
2022/06/26 09:13:42;;;;;;;8.25;6.00;;;20.40;99.90;;;;;;4878390;29;20430;-75
2022/06/26 09:16:09;;;;;;;6.90;6.22;;;20.50;99.90;;;;;;4879580;29;20085;-82
2022/06/26 09:18:36;;;;;;;6.05;5.50;;;20.70;99.90;;;;;;4880302;29;20477;-76
2022/06/26 09:21:04;;;;;;;6.07;5.07;;;20.80;99.90;;;;;;4879541;29;20045;-75
2022/06/26 09:23:34;;;;;;;4.93;4.53;;;20.90;99.90;;;;;;4878863;29;20059;-76
2022/06/26 09:26:01;;;;;;;7.22;6.57;;;20.90;99.90;;;;;;4880156;29;20386;-82
2022/06/26 09:28:27;;;;;;;5.80;5.10;;;20.90;99.90;;;;;;4879963;29;20049;-76
2022/06/26 09:31:00;;;;;;;3.67;3.38;;;20.90;99.90;;;;;;4879468;29;20053;-75
2022/06/26 09:33:31;;;;;;;2.75;2.35;;;20.80;99.90;;;;;;4879724;29;20053;-78
2022/06/26 09:35:58;;;;;;;3.33;2.70;;;20.80;99.90;;;;;;4879239;29;20061;-76
2022/06/26 09:38:30;;;;;;;5.03;4.47;;;20.80;99.90;;;;;;4879331;29;20053;-77
2022/06/26 09:40:56;;;;;;;4.10;3.65;;;20.70;99.90;;;;;;4879254;29;20053;-75
2022/06/26 09:43:40;;;;;;;5.28;4.53;;;20.70;99.90;;;;;;4879521;29;20135;-75
2022/06/26 09:46:08;;;;;;;6.80;3.63;;;20.80;99.90;;;;;;4879769;29;20128;-76
2022/06/26 09:48:35;;;;;;;6.38;3.20;;;20.80;99.90;;;;;;4879230;29;20059;-76
2022/06/26 09:51:02;;;;;;;3.53;3.22;;;20.80;99.90;;;;;;4879261;29;20088;-74
2022/06/26 09:53:28;;;;;;;3.65;3.30;;;20.90;99.90;;;;;;4878258;29;20057;-78
2022/06/26 09:55:56;;;;;;;3.80;3.47;;;20.90;99.90;;;;;;4879687;29;20071;-76
2022/06/26 09:58:22;;;;;;;4.32;2.70;;;20.90;99.90;;;;;;4879240;29;20057;-76
2022/06/26 10:06:27;;;;;;;4.50;4.10;;;21.00;99.90;;;;;;4879059;29;20053;-78
2022/06/26 10:08:55;;;;;;;3.72;3.42;;;21.10;99.90;;;;;;4863659;29;20490;-75
2022/06/26 10:11:24;;;;;;;2.58;1.70;;;21.10;99.90;;;;;;4879938;29;20056;-75
2022/06/26 10:13:53;;;;;;;2.50;1.80;;;21.20;99.90;;;;;;4878186;29;20056;-76
2022/06/26 10:16:28;;;;;;;2.65;2.20;;;21.30;99.90;;;;;;4880188;29;20053;-75
2022/06/26 10:19:23;;;;;;;2.80;1.65;;;21.50;99.90;;;;;;4882421;29;20052;-74
2022/06/26 10:21:50;;;;;;;3.35;2.60;;;21.50;99.90;;;;;;4882416;29;20507;-75
2022/06/26 10:24:16;;;;;;;4.57;4.20;;;21.60;99.90;;;;;;4881320;29;20045;-75
2022/06/26 10:26:56;;;;;;;6.60;5.10;;;21.50;99.90;;;;;;4882614;29;20528;-76
2022/06/26 10:30:15;;;;;;;6.88;5.05;;;21.60;99.90;;;;;;4881095;29;20053;-74
2022/06/26 10:32:44;;;;;;;4.82;4.15;;;21.60;99.90;;;;;;4873710;29;20061;-72
2022/06/26 10:35:12;;;;;;;3.47;2.88;;;21.50;99.90;;;;;;4882196;29;20041;-74
2022/06/26 10:37:42;;;;;;;4.25;3.53;;;21.50;99.90;;;;;;4882094;29;20041;-73
2022/06/26 10:43:11;;;;;;;5.03;3.40;;;21.50;99.90;;;;;;4882278;29;20541;-73
2022/06/26 10:45:39;;;;;;;5.32;2.95;;;21.40;99.90;;;;;;4882658;29;20052;-73
2022/06/26 10:48:19;;;;;;;5.15;3.38;;;21.40;99.90;;;;;;4882648;29;20057;-73
2022/06/26 10:51:01;;;;;;;6.07;3.38;;;21.40;99.90;;;;;;4881474;29;20386;-73
2022/06/26 10:53:37;;;;;;;2.65;1.45;;;21.40;99.90;;;;;;4881886;29;20509;-73
2022/06/26 10:56:06;;;;;;;3.05;2.15;;;21.40;99.90;;;;;;4881471;29;20513;-72
2022/06/26 10:58:37;;;;;;;2.17;1.70;;;21.40;99.90;;;;;;4881651;29;20128;-74
2022/06/26 11:01:09;;;;;;;3.50;2.30;;;21.40;99.90;;;;;;4881857;29;20120;-74
2022/06/26 11:03:36;;;;;;;2.63;1.77;;;21.50;99.90;;;;;;4881323;29;20192;-75
2022/06/26 11:06:10;;;;;;;2.65;1.80;;;21.60;99.90;;;;;;4881631;29;20104;-75
2022/06/26 11:08:38;;;;;;;2.50;1.10;;;21.60;99.90;;;;;;4882053;29;20177;-75
2022/06/26 11:11:10;;;;;;;2.55;1.20;;;21.60;99.90;;;;;;4881738;29;20069;-75
2022/06/26 11:13:47;;;;;;;1.30;1.17;;;21.60;99.90;;;;;;4881475;29;20045;-75
2022/06/26 11:16:13;;;;;;;2.50;1.38;;;21.60;99.90;;;;;;4882227;29;20405;-74
2022/06/26 11:18:38;;;;;;;3.33;1.50;;;21.70;99.90;;;;;;4881438;29;20049;-74
2022/06/26 11:21:04;;;;;;;2.28;1.58;;;21.70;99.90;;;;;;4881374;29;20051;-74
2022/06/26 11:23:32;;;;;;;2.25;2.05;;;21.80;99.90;;;;;;4881287;29;20053;-75
2022/06/26 11:26:02;;;;;;;1.63;1.50;;;21.80;99.90;;;;;;4880773;29;20049;-75
2022/06/26 11:28:38;;;;;;;1.63;1.52;;;21.80;99.90;;;;;;4880886;29;20055;-76
2022/06/26 11:31:05;;;;;;;2.42;1.17;;;21.80;99.90;;;;;;4881757;29;20471;-76
2022/06/26 11:33:35;;;;;;;1.48;1.23;;;21.70;99.90;;;;;;4880832;29;20511;-74
2022/06/26 11:36:03;;;;;;;2.15;1.20;;;21.80;99.90;;;;;;4881115;29;20057;-74
2022/06/26 11:38:30;;;;;;;2.15;1.60;;;21.80;99.90;;;;;;4880994;29;20053;-75
2022/06/26 11:40:59;;;;;;;1.67;1.20;;;21.90;99.90;;;;;;4880944;29;20049;-76
2022/06/26 11:43:24;;;;;;;2.20;1.48;;;21.90;99.90;;;;;;4881006;29;20052;-76
2022/06/26 11:45:51;;;;;;;2.10;1.55;;;21.90;99.90;;;;;;4881741;29;20359;-76
2022/06/26 11:48:17;;;;;;;1.95;1.02;;;21.90;99.90;;;;;;4881994;29;20045;-75
2022/06/26 11:50:50;;;;;;;2.38;1.40;;;22.00;99.90;;;;;;4881276;29;20579;-76
2022/06/26 11:53:21;;;;;;;1.67;1.40;;;22.00;99.90;;;;;;4880866;29;20108;-76
2022/06/26 11:55:58;;;;;;;1.70;1.10;;;22.00;99.90;;;;;;4880671;29;20124;-76
2022/06/26 11:58:30;;;;;;;1.85;1.15;;;22.00;99.90;;;;;;4880767;29;20048;-77
2022/06/26 12:01:03;;;;;;;;;;;22.00;99.90;;;;;;4881553;29;20049;-77
2022/06/26 12:03:29;;;;;;;2.50;1.38;;;22.10;99.90;;;;;;4880052;29;20010;-76
2022/06/26 12:05:55;;;;;;;2.95;1.25;;;22.10;99.90;;;;;;4880513;29;20557;-70
2022/06/26 12:08:20;;;;;;;1.73;1.30;;;22.10;99.90;;;;;;4879912;29;20402;-69
2022/06/26 12:10:50;;;;;;;2.25;1.30;;;22.00;99.90;;;;;;4879441;29;20053;-68
2022/06/26 12:13:30;;;;;;;1.77;1.15;;;22.00;99.90;;;;;;4880784;29;20049;-68
2022/06/26 12:16:09;;;;;;;1.95;1.17;;;22.00;99.90;;;;;;4881358;29;20419;-68
2022/06/26 12:18:39;;;;;;;2.00;1.52;;;22.10;99.90;;;;;;4880728;29;20205;-68
2022/06/26 12:21:20;;;;;;;2.80;1.40;;;22.10;99.90;;;;;;4880322;29;20513;-68
2022/06/26 12:23:56;;;;;;;1.50;1.10;;;22.20;99.90;;;;;;4881346;29;20052;-68
2022/06/26 12:26:24;;;;;;;2.47;1.30;;;22.20;99.90;;;;;;4879375;29;20056;-68
2022/06/26 12:29:00;;;;;;;1.88;1.40;;;22.20;99.90;;;;;;4880787;29;20053;-69
2022/06/26 12:31:26;;;;;;;3.60;1.52;;;22.30;99.90;;;;;;4880602;29;20060;-68
2022/06/26 12:33:53;;;;;;;1.77;1.38;;;22.30;99.90;;;;;;4880472;29;20080;-68
2022/06/26 12:36:18;;;;;;;2.65;1.98;;;22.40;99.90;;;;;;4879293;29;20056;-68
2022/06/26 12:38:45;;;;;;;1.65;1.55;;;22.40;99.90;;;;;;4880350;29;20048;-68
2022/06/26 12:41:18;;;;;;;1.90;1.65;;;22.40;99.90;;;;;;4879985;29;20516;-68
2022/06/26 12:43:50;;;;;;;1.63;1.50;;;22.40;99.90;;;;;;4879801;29;20108;-68
2022/06/26 12:46:16;;;;;;;4.75;1.55;;;22.40;99.90;;;;;;4880301;29;20045;-68
2022/06/26 12:48:42;;;;;;;2.63;1.30;;;22.40;99.90;;;;;;4879155;29;20052;-69
2022/06/26 12:51:08;;;;;;;1.70;1.20;;;22.40;99.90;;;;;;4879036;29;20048;-68
2022/06/26 12:53:33;;;;;;;1.90;1.20;;;22.40;99.90;;;;;;4880735;29;20048;-68
2022/06/26 12:55:59;;;;;;;2.25;1.17;;;22.40;99.90;;;;;;4880200;29;20573;-68